sensor_id;sensor_type;location;lat;lon;timestamp;P1;durP1;ratioP1;P2;durP2;ratioP2
69998;SDS011;57339;52.156;5.372;2024-01-16T00:01:21;11.70;;;1.90;;
69998;SDS011;57339;52.156;5.372;2024-01-16T00:03:54;11.73;;;2.33;;
69998;SDS011;57339;52.156;5.372;2024-01-16T00:06:24;11.23;;;2.30;;
69998;SDS011;57339;52.156;5.372;2024-01-16T00:08:54;12.20;;;2.00;;
69998;SDS011;57339;52.156;5.372;2024-01-16T00:11:21;15.10;;;1.83;;
69998;SDS011;57339;52.156;5.372;2024-01-16T00:13:50;12.68;;;2.00;;
69998;SDS011;57339;52.156;5.372;2024-01-16T00:16:20;14.68;;;2.05;;
69998;SDS011;57339;52.156;5.372;2024-01-16T00:18:50;16.60;;;2.30;;
69998;SDS011;57339;52.156;5.372;2024-01-16T00:21:16;12.77;;;2.10;;
69998;SDS011;57339;52.156;5.372;2024-01-16T00:23:44;12.30;;;2.00;;
69998;SDS011;57339;52.156;5.372;2024-01-16T00:26:19;11.02;;;2.17;;
69998;SDS011;57339;52.156;5.372;2024-01-16T00:28:55;13.98;;;2.08;;
69998;SDS011;57339;52.156;5.372;2024-01-16T00:31:23;13.57;;;2.28;;
69998;SDS011;57339;52.156;5.372;2024-01-16T00:33:50;5.43;;;1.70;;
69998;SDS011;57339;52.156;5.372;2024-01-16T00:36:18;10.38;;;2.22;;
69998;SDS011;57339;52.156;5.372;2024-01-16T00:38:45;9.95;;;2.08;;
69998;SDS011;57339;52.156;5.372;2024-01-16T00:41:12;9.88;;;2.13;;
69998;SDS011;57339;52.156;5.372;2024-01-16T00:43:39;13.60;;;2.38;;
69998;SDS011;57339;52.156;5.372;2024-01-16T00:46:07;12.97;;;2.10;;
69998;SDS011;57339;52.156;5.372;2024-01-16T00:48:34;14.15;;;2.10;;
69998;SDS011;57339;52.156;5.372;2024-01-16T00:51:01;10.70;;;2.20;;
69998;SDS011;57339;52.156;5.372;2024-01-16T00:53:28;6.43;;;1.67;;
69998;SDS011;57339;52.156;5.372;2024-01-16T00:55:55;11.60;;;2.05;;
69998;SDS011;57339;52.156;5.372;2024-01-16T00:58:25;14.27;;;2.10;;
69998;SDS011;57339;52.156;5.372;2024-01-16T01:00:55;12.68;;;2.10;;
69998;SDS011;57339;52.156;5.372;2024-01-16T01:03:26;11.65;;;1.95;;
69998;SDS011;57339;52.156;5.372;2024-01-16T01:05:54;12.52;;;2.15;;
69998;SDS011;57339;52.156;5.372;2024-01-16T01:08:21;11.82;;;1.85;;
69998;SDS011;57339;52.156;5.372;2024-01-16T01:10:50;10.67;;;1.97;;
69998;SDS011;57339;52.156;5.372;2024-01-16T01:13:16;7.85;;;2.10;;
69998;SDS011;57339;52.156;5.372;2024-01-16T01:15:43;14.63;;;2.22;;
69998;SDS011;57339;52.156;5.372;2024-01-16T01:18:10;9.98;;;1.92;;
69998;SDS011;57339;52.156;5.372;2024-01-16T01:20:40;14.45;;;2.53;;
69998;SDS011;57339;52.156;5.372;2024-01-16T01:23:07;12.53;;;2.10;;
69998;SDS011;57339;52.156;5.372;2024-01-16T01:25:35;8.25;;;1.70;;
69998;SDS011;57339;52.156;5.372;2024-01-16T01:28:02;11.27;;;2.13;;
69998;SDS011;57339;52.156;5.372;2024-01-16T01:30:29;9.00;;;2.00;;
69998;SDS011;57339;52.156;5.372;2024-01-16T01:32:59;14.40;;;2.40;;
69998;SDS011;57339;52.156;5.372;2024-01-16T01:35:28;13.47;;;2.30;;
69998;SDS011;57339;52.156;5.372;2024-01-16T01:37:55;14.93;;;2.42;;
69998;SDS011;57339;52.156;5.372;2024-01-16T01:40:25;8.88;;;2.35;;
69998;SDS011;57339;52.156;5.372;2024-01-16T01:42:55;9.27;;;1.92;;
69998;SDS011;57339;52.156;5.372;2024-01-16T01:45:24;11.30;;;2.20;;
69998;SDS011;57339;52.156;5.372;2024-01-16T01:47:51;10.13;;;1.93;;
69998;SDS011;57339;52.156;5.372;2024-01-16T01:50:27;12.65;;;2.40;;
69998;SDS011;57339;52.156;5.372;2024-01-16T01:52:54;13.70;;;2.40;;
69998;SDS011;57339;52.156;5.372;2024-01-16T01:55:21;9.18;;;1.90;;
69998;SDS011;57339;52.156;5.372;2024-01-16T01:57:50;9.52;;;1.58;;
69998;SDS011;57339;52.156;5.372;2024-01-16T02:00:17;13.93;;;4.10;;
69998;SDS011;57339;52.156;5.372;2024-01-16T02:02:44;6.57;;;1.55;;
69998;SDS011;57339;52.156;5.372;2024-01-16T02:05:22;10.30;;;1.90;;
69998;SDS011;57339;52.156;5.372;2024-01-16T02:07:56;7.95;;;1.45;;
69998;SDS011;57339;52.156;5.372;2024-01-16T02:10:27;7.03;;;1.55;;
69998;SDS011;57339;52.156;5.372;2024-01-16T02:12:57;9.13;;;2.00;;
69998;SDS011;57339;52.156;5.372;2024-01-16T02:15:24;12.68;;;2.10;;
69998;SDS011;57339;52.156;5.372;2024-01-16T02:17:51;6.28;;;1.88;;
69998;SDS011;57339;52.156;5.372;2024-01-16T02:20:21;10.30;;;1.95;;
69998;SDS011;57339;52.156;5.372;2024-01-16T02:22:50;8.30;;;2.30;;
69998;SDS011;57339;52.156;5.372;2024-01-16T02:25:25;7.47;;;1.83;;
69998;SDS011;57339;52.156;5.372;2024-01-16T02:27:52;12.90;;;2.10;;
69998;SDS011;57339;52.156;5.372;2024-01-16T02:30:21;11.93;;;1.90;;
69998;SDS011;57339;52.156;5.372;2024-01-16T02:32:49;13.02;;;2.10;;
69998;SDS011;57339;52.156;5.372;2024-01-16T02:35:17;12.93;;;2.40;;
69998;SDS011;57339;52.156;5.372;2024-01-16T02:37:44;9.23;;;1.90;;
69998;SDS011;57339;52.156;5.372;2024-01-16T02:40:11;11.95;;;2.00;;
69998;SDS011;57339;52.156;5.372;2024-01-16T02:42:39;11.52;;;2.10;;
69998;SDS011;57339;52.156;5.372;2024-01-16T02:45:06;10.82;;;2.13;;
69998;SDS011;57339;52.156;5.372;2024-01-16T02:47:33;8.98;;;1.90;;
69998;SDS011;57339;52.156;5.372;2024-01-16T02:50:00;8.47;;;1.87;;
69998;SDS011;57339;52.156;5.372;2024-01-16T02:52:28;8.30;;;1.95;;
69998;SDS011;57339;52.156;5.372;2024-01-16T02:54:55;9.00;;;1.80;;
69998;SDS011;57339;52.156;5.372;2024-01-16T02:57:22;7.82;;;1.83;;
69998;SDS011;57339;52.156;5.372;2024-01-16T02:59:52;11.10;;;1.98;;
69998;SDS011;57339;52.156;5.372;2024-01-16T03:02:21;10.57;;;1.93;;
69998;SDS011;57339;52.156;5.372;2024-01-16T03:04:51;9.48;;;1.85;;
69998;SDS011;57339;52.156;5.372;2024-01-16T03:07:18;8.80;;;1.98;;
69998;SDS011;57339;52.156;5.372;2024-01-16T03:09:45;9.13;;;1.42;;
69998;SDS011;57339;52.156;5.372;2024-01-16T03:12:13;8.15;;;1.50;;
69998;SDS011;57339;52.156;5.372;2024-01-16T03:14:40;6.50;;;1.60;;
69998;SDS011;57339;52.156;5.372;2024-01-16T03:17:07;5.15;;;1.40;;
69998;SDS011;57339;52.156;5.372;2024-01-16T03:19:34;7.68;;;1.30;;
69998;SDS011;57339;52.156;5.372;2024-01-16T03:22:01;5.15;;;1.30;;
69998;SDS011;57339;52.156;5.372;2024-01-16T03:24:28;5.75;;;1.20;;
69998;SDS011;57339;52.156;5.372;2024-01-16T03:26:55;5.57;;;1.60;;
69998;SDS011;57339;52.156;5.372;2024-01-16T03:29:22;4.82;;;1.30;;
69998;SDS011;57339;52.156;5.372;2024-01-16T03:31:50;5.05;;;1.30;;
69998;SDS011;57339;52.156;5.372;2024-01-16T03:34:18;7.57;;;1.40;;
69998;SDS011;57339;52.156;5.372;2024-01-16T03:36:48;6.47;;;1.30;;
69998;SDS011;57339;52.156;5.372;2024-01-16T03:39:18;3.73;;;1.23;;
69998;SDS011;57339;52.156;5.372;2024-01-16T03:41:45;8.32;;;1.40;;
69998;SDS011;57339;52.156;5.372;2024-01-16T03:44:12;8.18;;;1.80;;
69998;SDS011;57339;52.156;5.372;2024-01-16T03:46:39;5.93;;;1.30;;
69998;SDS011;57339;52.156;5.372;2024-01-16T03:49:06;8.48;;;1.73;;
69998;SDS011;57339;52.156;5.372;2024-01-16T03:51:33;5.67;;;1.40;;
69998;SDS011;57339;52.156;5.372;2024-01-16T03:54:00;5.15;;;1.42;;
69998;SDS011;57339;52.156;5.372;2024-01-16T03:56:27;3.70;;;1.50;;
69998;SDS011;57339;52.156;5.372;2024-01-16T03:58:57;9.48;;;1.65;;
69998;SDS011;57339;52.156;5.372;2024-01-16T04:01:31;7.75;;;1.95;;
69998;SDS011;57339;52.156;5.372;2024-01-16T04:04:01;6.40;;;1.43;;
69998;SDS011;57339;52.156;5.372;2024-01-16T04:06:28;9.50;;;1.60;;
69998;SDS011;57339;52.156;5.372;2024-01-16T04:08:55;8.48;;;1.48;;
69998;SDS011;57339;52.156;5.372;2024-01-16T04:11:24;6.47;;;1.45;;
69998;SDS011;57339;52.156;5.372;2024-01-16T04:13:57;4.75;;;1.40;;
69998;SDS011;57339;52.156;5.372;2024-01-16T04:16:28;6.47;;;1.43;;
69998;SDS011;57339;52.156;5.372;2024-01-16T04:18:58;6.35;;;1.60;;
69998;SDS011;57339;52.156;5.372;2024-01-16T04:21:25;5.63;;;1.52;;
69998;SDS011;57339;52.156;5.372;2024-01-16T04:23:55;4.53;;;1.42;;
69998;SDS011;57339;52.156;5.372;2024-01-16T04:26:22;7.85;;;2.15;;
69998;SDS011;57339;52.156;5.372;2024-01-16T04:28:53;7.83;;;1.50;;
69998;SDS011;57339;52.156;5.372;2024-01-16T04:31:22;4.88;;;1.48;;
69998;SDS011;57339;52.156;5.372;2024-01-16T04:33:49;7.68;;;1.55;;
69998;SDS011;57339;52.156;5.372;2024-01-16T04:36:16;8.50;;;1.40;;
69998;SDS011;57339;52.156;5.372;2024-01-16T04:38:44;8.57;;;1.67;;
69998;SDS011;57339;52.156;5.372;2024-01-16T04:41:11;6.70;;;1.40;;
69998;SDS011;57339;52.156;5.372;2024-01-16T04:43:38;6.80;;;1.58;;
69998;SDS011;57339;52.156;5.372;2024-01-16T04:46:06;12.13;;;1.70;;
69998;SDS011;57339;52.156;5.372;2024-01-16T04:48:33;9.60;;;1.92;;
69998;SDS011;57339;52.156;5.372;2024-01-16T04:51:03;8.05;;;1.85;;
69998;SDS011;57339;52.156;5.372;2024-01-16T04:53:31;12.67;;;1.77;;
69998;SDS011;57339;52.156;5.372;2024-01-16T04:55:58;7.03;;;1.60;;
69998;SDS011;57339;52.156;5.372;2024-01-16T04:58:28;8.02;;;1.77;;
69998;SDS011;57339;52.156;5.372;2024-01-16T05:01:02;10.20;;;2.03;;
69998;SDS011;57339;52.156;5.372;2024-01-16T05:03:29;12.10;;;1.88;;
69998;SDS011;57339;52.156;5.372;2024-01-16T05:05:56;6.63;;;1.80;;
69998;SDS011;57339;52.156;5.372;2024-01-16T05:08:24;8.43;;;1.80;;
69998;SDS011;57339;52.156;5.372;2024-01-16T05:10:53;9.57;;;1.92;;
69998;SDS011;57339;52.156;5.372;2024-01-16T05:13:22;12.35;;;2.00;;
69998;SDS011;57339;52.156;5.372;2024-01-16T05:15:49;11.05;;;2.05;;
69998;SDS011;57339;52.156;5.372;2024-01-16T05:18:16;10.70;;;1.93;;
69998;SDS011;57339;52.156;5.372;2024-01-16T05:20:43;12.95;;;2.90;;
69998;SDS011;57339;52.156;5.372;2024-01-16T05:23:10;10.90;;;2.33;;
69998;SDS011;57339;52.156;5.372;2024-01-16T05:25:37;8.20;;;2.10;;
69998;SDS011;57339;52.156;5.372;2024-01-16T05:28:05;10.15;;;2.50;;
69998;SDS011;57339;52.156;5.372;2024-01-16T05:30:34;8.97;;;2.63;;
69998;SDS011;57339;52.156;5.372;2024-01-16T05:33:01;9.45;;;3.08;;
69998;SDS011;57339;52.156;5.372;2024-01-16T05:35:29;8.98;;;2.60;;
69998;SDS011;57339;52.156;5.372;2024-01-16T05:37:59;11.75;;;2.80;;
69998;SDS011;57339;52.156;5.372;2024-01-16T05:40:27;10.50;;;2.67;;
69998;SDS011;57339;52.156;5.372;2024-01-16T05:42:54;12.17;;;2.60;;
69998;SDS011;57339;52.156;5.372;2024-01-16T05:45:22;11.60;;;2.80;;
69998;SDS011;57339;52.156;5.372;2024-01-16T05:47:49;11.55;;;2.97;;
69998;SDS011;57339;52.156;5.372;2024-01-16T05:50:18;10.68;;;2.85;;
69998;SDS011;57339;52.156;5.372;2024-01-16T05:52:45;8.57;;;2.45;;
69998;SDS011;57339;52.156;5.372;2024-01-16T05:55:13;10.53;;;3.27;;
69998;SDS011;57339;52.156;5.372;2024-01-16T05:57:40;11.02;;;3.03;;
69998;SDS011;57339;52.156;5.372;2024-01-16T06:00:07;8.88;;;2.92;;
69998;SDS011;57339;52.156;5.372;2024-01-16T06:02:34;10.43;;;2.65;;
69998;SDS011;57339;52.156;5.372;2024-01-16T06:05:02;14.85;;;3.20;;
69998;SDS011;57339;52.156;5.372;2024-01-16T06:07:29;10.07;;;2.80;;
69998;SDS011;57339;52.156;5.372;2024-01-16T06:09:59;10.07;;;2.88;;
69998;SDS011;57339;52.156;5.372;2024-01-16T06:12:29;13.23;;;3.08;;
69998;SDS011;57339;52.156;5.372;2024-01-16T06:15:02;10.35;;;2.75;;
69998;SDS011;57339;52.156;5.372;2024-01-16T06:17:30;11.20;;;2.95;;
69998;SDS011;57339;52.156;5.372;2024-01-16T06:19:57;11.67;;;2.83;;
69998;SDS011;57339;52.156;5.372;2024-01-16T06:22:23;6.95;;;2.50;;
69998;SDS011;57339;52.156;5.372;2024-01-16T06:24:52;9.52;;;3.00;;
69998;SDS011;57339;52.156;5.372;2024-01-16T06:27:19;7.65;;;2.55;;
69998;SDS011;57339;52.156;5.372;2024-01-16T06:29:46;11.68;;;2.90;;
69998;SDS011;57339;52.156;5.372;2024-01-16T06:32:14;8.10;;;2.27;;
69998;SDS011;57339;52.156;5.372;2024-01-16T06:34:41;8.20;;;2.47;;
69998;SDS011;57339;52.156;5.372;2024-01-16T06:37:08;7.18;;;2.10;;
69998;SDS011;57339;52.156;5.372;2024-01-16T06:39:36;12.00;;;2.75;;
69998;SDS011;57339;52.156;5.372;2024-01-16T06:42:03;9.23;;;2.40;;
69998;SDS011;57339;52.156;5.372;2024-01-16T06:44:35;6.87;;;2.03;;
69998;SDS011;57339;52.156;5.372;2024-01-16T06:47:02;7.80;;;2.30;;
69998;SDS011;57339;52.156;5.372;2024-01-16T06:49:29;9.10;;;2.40;;
69998;SDS011;57339;52.156;5.372;2024-01-16T06:51:59;11.73;;;2.55;;
69998;SDS011;57339;52.156;5.372;2024-01-16T06:54:29;12.00;;;2.42;;
69998;SDS011;57339;52.156;5.372;2024-01-16T06:56:56;9.57;;;2.60;;
69998;SDS011;57339;52.156;5.372;2024-01-16T06:59:26;11.75;;;2.33;;
69998;SDS011;57339;52.156;5.372;2024-01-16T07:01:56;10.05;;;2.75;;
69998;SDS011;57339;52.156;5.372;2024-01-16T07:04:28;13.32;;;3.17;;
69998;SDS011;57339;52.156;5.372;2024-01-16T07:06:58;13.20;;;3.65;;
69998;SDS011;57339;52.156;5.372;2024-01-16T07:09:25;11.93;;;3.27;;
69998;SDS011;57339;52.156;5.372;2024-01-16T07:11:55;11.20;;;3.58;;
69998;SDS011;57339;52.156;5.372;2024-01-16T07:14:25;11.25;;;3.38;;
69998;SDS011;57339;52.156;5.372;2024-01-16T07:16:55;10.82;;;3.80;;
69998;SDS011;57339;52.156;5.372;2024-01-16T07:19:25;12.38;;;4.03;;
69998;SDS011;57339;52.156;5.372;2024-01-16T07:21:51;14.70;;;4.10;;
69998;SDS011;57339;52.156;5.372;2024-01-16T07:24:19;18.45;;;4.60;;
69998;SDS011;57339;52.156;5.372;2024-01-16T07:26:46;16.65;;;5.07;;
69998;SDS011;57339;52.156;5.372;2024-01-16T07:29:13;14.27;;;4.97;;
69998;SDS011;57339;52.156;5.372;2024-01-16T07:31:40;23.42;;;6.15;;
69998;SDS011;57339;52.156;5.372;2024-01-16T07:34:07;17.77;;;5.83;;
69998;SDS011;57339;52.156;5.372;2024-01-16T07:36:34;20.25;;;6.25;;
69998;SDS011;57339;52.156;5.372;2024-01-16T07:39:05;17.25;;;6.57;;
69998;SDS011;57339;52.156;5.372;2024-01-16T07:41:32;21.40;;;6.70;;
69998;SDS011;57339;52.156;5.372;2024-01-16T07:43:59;19.08;;;6.20;;
69998;SDS011;57339;52.156;5.372;2024-01-16T07:46:29;21.60;;;6.60;;
69998;SDS011;57339;52.156;5.372;2024-01-16T07:49:00;21.00;;;7.70;;
69998;SDS011;57339;52.156;5.372;2024-01-16T07:51:27;19.85;;;6.93;;
69998;SDS011;57339;52.156;5.372;2024-01-16T07:54:04;21.27;;;8.18;;
69998;SDS011;57339;52.156;5.372;2024-01-16T07:56:32;24.70;;;7.78;;
69998;SDS011;57339;52.156;5.372;2024-01-16T07:59:00;21.37;;;7.03;;
69998;SDS011;57339;52.156;5.372;2024-01-16T08:01:28;22.13;;;7.25;;
69998;SDS011;57339;52.156;5.372;2024-01-16T08:03:55;20.95;;;8.48;;
69998;SDS011;57339;52.156;5.372;2024-01-16T08:06:26;24.15;;;8.57;;
69998;SDS011;57339;52.156;5.372;2024-01-16T08:09:00;23.90;;;8.68;;
69998;SDS011;57339;52.156;5.372;2024-01-16T08:11:30;24.47;;;8.13;;
69998;SDS011;57339;52.156;5.372;2024-01-16T08:13:57;22.77;;;7.25;;
69998;SDS011;57339;52.156;5.372;2024-01-16T08:16:27;26.58;;;7.57;;
69998;SDS011;57339;52.156;5.372;2024-01-16T08:18:54;22.95;;;7.82;;
69998;SDS011;57339;52.156;5.372;2024-01-16T08:21:25;20.58;;;7.63;;
69998;SDS011;57339;52.156;5.372;2024-01-16T08:23:55;25.17;;;8.00;;
69998;SDS011;57339;52.156;5.372;2024-01-16T08:26:25;19.05;;;7.40;;
69998;SDS011;57339;52.156;5.372;2024-01-16T08:28:54;20.20;;;7.55;;
69998;SDS011;57339;52.156;5.372;2024-01-16T08:31:21;21.33;;;7.63;;
69998;SDS011;57339;52.156;5.372;2024-01-16T08:33:48;22.73;;;8.27;;
69998;SDS011;57339;52.156;5.372;2024-01-16T08:36:19;21.67;;;7.57;;
69998;SDS011;57339;52.156;5.372;2024-01-16T08:38:46;22.58;;;7.00;;
69998;SDS011;57339;52.156;5.372;2024-01-16T08:41:14;16.75;;;6.00;;
69998;SDS011;57339;52.156;5.372;2024-01-16T08:43:41;19.67;;;6.85;;
69998;SDS011;57339;52.156;5.372;2024-01-16T08:46:10;18.02;;;6.70;;
69998;SDS011;57339;52.156;5.372;2024-01-16T08:48:37;25.47;;;6.70;;
69998;SDS011;57339;52.156;5.372;2024-01-16T08:51:08;19.45;;;6.53;;
69998;SDS011;57339;52.156;5.372;2024-01-16T08:53:39;20.40;;;6.10;;
69998;SDS011;57339;52.156;5.372;2024-01-16T08:56:06;23.67;;;5.80;;
69998;SDS011;57339;52.156;5.372;2024-01-16T08:58:33;19.50;;;5.90;;
69998;SDS011;57339;52.156;5.372;2024-01-16T09:01:04;16.13;;;5.47;;
69998;SDS011;57339;52.156;5.372;2024-01-16T09:03:32;17.17;;;6.03;;
69998;SDS011;57339;52.156;5.372;2024-01-16T09:05:59;17.42;;;5.65;;
69998;SDS011;57339;52.156;5.372;2024-01-16T09:08:30;16.88;;;5.13;;
69998;SDS011;57339;52.156;5.372;2024-01-16T09:11:00;14.35;;;5.20;;
69998;SDS011;57339;52.156;5.372;2024-01-16T09:13:30;17.10;;;5.20;;
69998;SDS011;57339;52.156;5.372;2024-01-16T09:16:00;13.77;;;4.65;;
69998;SDS011;57339;52.156;5.372;2024-01-16T09:18:36;16.30;;;5.25;;
69998;SDS011;57339;52.156;5.372;2024-01-16T09:21:03;15.98;;;4.50;;
69998;SDS011;57339;52.156;5.372;2024-01-16T09:23:31;17.05;;;4.68;;
69998;SDS011;57339;52.156;5.372;2024-01-16T09:25:59;18.07;;;5.13;;
69998;SDS011;57339;52.156;5.372;2024-01-16T09:28:26;16.17;;;5.05;;
69998;SDS011;57339;52.156;5.372;2024-01-16T09:30:56;15.90;;;4.53;;
69998;SDS011;57339;52.156;5.372;2024-01-16T09:33:33;16.05;;;4.68;;
69998;SDS011;57339;52.156;5.372;2024-01-16T09:36:03;14.98;;;5.05;;
69998;SDS011;57339;52.156;5.372;2024-01-16T09:38:32;16.23;;;5.10;;
69998;SDS011;57339;52.156;5.372;2024-01-16T09:40:58;13.07;;;3.95;;
69998;SDS011;57339;52.156;5.372;2024-01-16T09:43:32;14.30;;;4.20;;
69998;SDS011;57339;52.156;5.372;2024-01-16T09:46:00;13.10;;;4.20;;
69998;SDS011;57339;52.156;5.372;2024-01-16T09:48:30;16.20;;;4.82;;
69998;SDS011;57339;52.156;5.372;2024-01-16T09:50:58;14.93;;;4.67;;
69998;SDS011;57339;52.156;5.372;2024-01-16T09:53:32;16.42;;;5.00;;
69998;SDS011;57339;52.156;5.372;2024-01-16T09:56:04;14.88;;;4.22;;
69998;SDS011;57339;52.156;5.372;2024-01-16T09:58:50;14.80;;;4.25;;
69998;SDS011;57339;52.156;5.372;2024-01-16T10:01:26;12.70;;;4.22;;
69998;SDS011;57339;52.156;5.372;2024-01-16T10:04:03;14.43;;;4.70;;
69998;SDS011;57339;52.156;5.372;2024-01-16T10:06:37;18.42;;;4.38;;
69998;SDS011;57339;52.156;5.372;2024-01-16T10:09:05;17.77;;;5.18;;
69998;SDS011;57339;52.156;5.372;2024-01-16T10:11:33;10.30;;;3.97;;
69998;SDS011;57339;52.156;5.372;2024-01-16T10:14:03;12.90;;;4.50;;
69998;SDS011;57339;52.156;5.372;2024-01-16T10:19:31;12.57;;;4.05;;
69998;SDS011;57339;52.156;5.372;2024-01-16T10:22:13;12.68;;;4.55;;
69998;SDS011;57339;52.156;5.372;2024-01-16T10:25:03;13.38;;;4.10;;
69998;SDS011;57339;52.156;5.372;2024-01-16T10:27:36;12.50;;;3.90;;
69998;SDS011;57339;52.156;5.372;2024-01-16T10:30:05;13.23;;;4.30;;
69998;SDS011;57339;52.156;5.372;2024-01-16T10:32:36;15.88;;;4.03;;
69998;SDS011;57339;52.156;5.372;2024-01-16T10:35:09;15.27;;;4.47;;
69998;SDS011;57339;52.156;5.372;2024-01-16T10:37:49;11.55;;;4.40;;
69998;SDS011;57339;52.156;5.372;2024-01-16T10:40:21;15.48;;;3.60;;
69998;SDS011;57339;52.156;5.372;2024-01-16T10:42:59;14.23;;;4.23;;
69998;SDS011;57339;52.156;5.372;2024-01-16T10:45:28;12.30;;;3.85;;
69998;SDS011;57339;52.156;5.372;2024-01-16T10:48:02;13.40;;;4.00;;
69998;SDS011;57339;52.156;5.372;2024-01-16T10:50:35;12.05;;;4.20;;
69998;SDS011;57339;52.156;5.372;2024-01-16T10:53:03;10.88;;;3.95;;
69998;SDS011;57339;52.156;5.372;2024-01-16T10:55:31;12.30;;;3.87;;
69998;SDS011;57339;52.156;5.372;2024-01-16T10:58:09;11.75;;;3.25;;
69998;SDS011;57339;52.156;5.372;2024-01-16T11:00:40;10.27;;;3.53;;
69998;SDS011;57339;52.156;5.372;2024-01-16T11:03:16;15.35;;;4.70;;
69998;SDS011;57339;52.156;5.372;2024-01-16T11:05:49;12.20;;;4.32;;
69998;SDS011;57339;52.156;5.372;2024-01-16T11:08:18;15.23;;;4.77;;
69998;SDS011;57339;52.156;5.372;2024-01-16T11:10:46;13.02;;;4.43;;
69998;SDS011;57339;52.156;5.372;2024-01-16T11:13:15;11.45;;;3.97;;
69998;SDS011;57339;52.156;5.372;2024-01-16T11:15:44;15.73;;;3.85;;
69998;SDS011;57339;52.156;5.372;2024-01-16T11:18:15;10.68;;;3.90;;
69998;SDS011;57339;52.156;5.372;2024-01-16T11:20:44;9.97;;;3.07;;
69998;SDS011;57339;52.156;5.372;2024-01-16T11:23:31;13.20;;;3.45;;
69998;SDS011;57339;52.156;5.372;2024-01-16T11:25:59;10.48;;;3.17;;
69998;SDS011;57339;52.156;5.372;2024-01-16T11:28:29;11.88;;;3.33;;
69998;SDS011;57339;52.156;5.372;2024-01-16T11:30:56;10.63;;;3.20;;
69998;SDS011;57339;52.156;5.372;2024-01-16T11:35:59;10.95;;;3.60;;
69998;SDS011;57339;52.156;5.372;2024-01-16T11:38:27;8.65;;;3.00;;
69998;SDS011;57339;52.156;5.372;2024-01-16T11:40:56;13.60;;;3.38;;
69998;SDS011;57339;52.156;5.372;2024-01-16T11:45:59;13.43;;;3.77;;
69998;SDS011;57339;52.156;5.372;2024-01-16T11:48:31;11.00;;;3.10;;
69998;SDS011;57339;52.156;5.372;2024-01-16T11:50:58;9.18;;;2.45;;
69998;SDS011;57339;52.156;5.372;2024-01-16T11:53:47;11.50;;;2.90;;
69998;SDS011;57339;52.156;5.372;2024-01-16T12:01:45;11.07;;;3.20;;
69998;SDS011;57339;52.156;5.372;2024-01-16T12:04:16;10.10;;;2.80;;
69998;SDS011;57339;52.156;5.372;2024-01-16T12:06:43;10.70;;;2.80;;
69998;SDS011;57339;52.156;5.372;2024-01-16T12:09:12;11.32;;;3.33;;
69998;SDS011;57339;52.156;5.372;2024-01-16T12:11:40;11.33;;;2.60;;
69998;SDS011;57339;52.156;5.372;2024-01-16T12:14:11;7.70;;;2.80;;
69998;SDS011;57339;52.156;5.372;2024-01-16T12:16:39;9.07;;;2.85;;
69998;SDS011;57339;52.156;5.372;2024-01-16T12:19:06;9.60;;;2.88;;
69998;SDS011;57339;52.156;5.372;2024-01-16T12:21:35;11.63;;;3.08;;
69998;SDS011;57339;52.156;5.372;2024-01-16T12:24:12;7.60;;;2.77;;
69998;SDS011;57339;52.156;5.372;2024-01-16T12:26:44;9.10;;;2.55;;
69998;SDS011;57339;52.156;5.372;2024-01-16T12:29:11;10.45;;;3.22;;
69998;SDS011;57339;52.156;5.372;2024-01-16T12:31:38;11.30;;;3.08;;
69998;SDS011;57339;52.156;5.372;2024-01-16T12:34:08;10.52;;;2.60;;
69998;SDS011;57339;52.156;5.372;2024-01-16T12:36:37;10.33;;;2.77;;
69998;SDS011;57339;52.156;5.372;2024-01-16T12:39:04;9.73;;;2.90;;
69998;SDS011;57339;52.156;5.372;2024-01-16T12:41:36;9.95;;;2.80;;
69998;SDS011;57339;52.156;5.372;2024-01-16T12:44:09;7.97;;;2.58;;
69998;SDS011;57339;52.156;5.372;2024-01-16T12:46:53;11.52;;;2.90;;
69998;SDS011;57339;52.156;5.372;2024-01-16T12:49:21;7.97;;;2.50;;
69998;SDS011;57339;52.156;5.372;2024-01-16T12:51:49;13.75;;;2.67;;
69998;SDS011;57339;52.156;5.372;2024-01-16T12:54:17;11.45;;;3.20;;
69998;SDS011;57339;52.156;5.372;2024-01-16T12:56:45;9.85;;;3.15;;
69998;SDS011;57339;52.156;5.372;2024-01-16T12:59:13;10.15;;;3.42;;
69998;SDS011;57339;52.156;5.372;2024-01-16T13:01:41;11.13;;;3.37;;
69998;SDS011;57339;52.156;5.372;2024-01-16T13:04:10;13.45;;;3.38;;
69998;SDS011;57339;52.156;5.372;2024-01-16T13:06:38;12.98;;;3.40;;
69998;SDS011;57339;52.156;5.372;2024-01-16T13:09:09;9.32;;;3.33;;
69998;SDS011;57339;52.156;5.372;2024-01-16T13:11:51;12.98;;;3.78;;
69998;SDS011;57339;52.156;5.372;2024-01-16T13:14:20;10.27;;;3.30;;
69998;SDS011;57339;52.156;5.372;2024-01-16T13:16:48;10.00;;;3.25;;
69998;SDS011;57339;52.156;5.372;2024-01-16T13:19:19;13.55;;;3.42;;
69998;SDS011;57339;52.156;5.372;2024-01-16T13:21:47;13.38;;;3.97;;
69998;SDS011;57339;52.156;5.372;2024-01-16T13:24:15;10.85;;;3.80;;
69998;SDS011;57339;52.156;5.372;2024-01-16T13:26:44;12.60;;;3.80;;
69998;SDS011;57339;52.156;5.372;2024-01-16T13:29:11;14.27;;;3.60;;
69998;SDS011;57339;52.156;5.372;2024-01-16T13:31:38;16.27;;;4.10;;
69998;SDS011;57339;52.156;5.372;2024-01-16T13:34:05;14.77;;;3.50;;
69998;SDS011;57339;52.156;5.372;2024-01-16T13:36:32;11.13;;;3.20;;
69998;SDS011;57339;52.156;5.372;2024-01-16T13:39:19;10.53;;;3.10;;
69998;SDS011;57339;52.156;5.372;2024-01-16T13:41:46;14.57;;;3.85;;
69998;SDS011;57339;52.156;5.372;2024-01-16T13:44:14;11.52;;;3.10;;
69998;SDS011;57339;52.156;5.372;2024-01-16T13:46:43;11.00;;;3.50;;
69998;SDS011;57339;52.156;5.372;2024-01-16T13:49:30;11.10;;;3.00;;
69998;SDS011;57339;52.156;5.372;2024-01-16T13:52:01;8.60;;;2.87;;
69998;SDS011;57339;52.156;5.372;2024-01-16T13:54:31;10.82;;;2.70;;
69998;SDS011;57339;52.156;5.372;2024-01-16T13:56:58;10.02;;;2.80;;
69998;SDS011;57339;52.156;5.372;2024-01-16T13:59:34;9.15;;;2.40;;
69998;SDS011;57339;52.156;5.372;2024-01-16T14:02:03;9.30;;;2.50;;
69998;SDS011;57339;52.156;5.372;2024-01-16T14:04:33;9.47;;;2.60;;
69998;SDS011;57339;52.156;5.372;2024-01-16T14:07:00;9.63;;;2.47;;
69998;SDS011;57339;52.156;5.372;2024-01-16T14:09:39;9.63;;;2.78;;
69998;SDS011;57339;52.156;5.372;2024-01-16T14:12:09;7.07;;;2.35;;
69998;SDS011;57339;52.156;5.372;2024-01-16T14:14:38;10.15;;;2.78;;
69998;SDS011;57339;52.156;5.372;2024-01-16T14:17:13;7.97;;;2.43;;
69998;SDS011;57339;52.156;5.372;2024-01-16T14:19:40;7.70;;;2.63;;
69998;SDS011;57339;52.156;5.372;2024-01-16T14:22:07;9.07;;;2.13;;
69998;SDS011;57339;52.156;5.372;2024-01-16T14:24:35;10.40;;;2.80;;
69998;SDS011;57339;52.156;5.372;2024-01-16T14:27:02;7.22;;;2.22;;
69998;SDS011;57339;52.156;5.372;2024-01-16T14:29:32;8.17;;;2.13;;
69998;SDS011;57339;52.156;5.372;2024-01-16T14:32:02;9.07;;;2.20;;
69998;SDS011;57339;52.156;5.372;2024-01-16T14:34:29;6.97;;;2.20;;
69998;SDS011;57339;52.156;5.372;2024-01-16T14:36:57;7.05;;;2.20;;
69998;SDS011;57339;52.156;5.372;2024-01-16T14:39:24;11.25;;;2.67;;
69998;SDS011;57339;52.156;5.372;2024-01-16T14:41:53;11.93;;;3.37;;
69998;SDS011;57339;52.156;5.372;2024-01-16T14:44:21;11.02;;;3.25;;
69998;SDS011;57339;52.156;5.372;2024-01-16T14:46:48;11.52;;;3.47;;
69998;SDS011;57339;52.156;5.372;2024-01-16T14:49:19;9.85;;;3.33;;
69998;SDS011;57339;52.156;5.372;2024-01-16T14:51:47;10.77;;;3.33;;
69998;SDS011;57339;52.156;5.372;2024-01-16T14:54:14;12.47;;;3.60;;
69998;SDS011;57339;52.156;5.372;2024-01-16T14:56:41;10.68;;;3.50;;
69998;SDS011;57339;52.156;5.372;2024-01-16T14:59:08;11.23;;;3.65;;
69998;SDS011;57339;52.156;5.372;2024-01-16T15:01:35;13.57;;;3.50;;
69998;SDS011;57339;52.156;5.372;2024-01-16T15:04:02;12.85;;;3.22;;